Time;durP1;ratioP1;P1;durP2;ratioP2;P2;SDS_P1;SDS_P2;PMS_P1;PMS_P2;Temp;Humidity;BMP_temperature;BMP_pressure;BME280_temperature;BME280_humidity;BME280_pressure;Samples;Min_cycle;Max_cycle;Signal;HPM_P1;HPM_P2
2023/09/10 00:02:13;;;;;;;12.30;8.00;;;;;;;17.51;100.00;97451.44;5030303;28;20128;-63
2023/09/10 00:04:40;;;;;;;11.52;7.75;;;;;;;17.52;100.00;97455.00;5034045;28;20055;-62
2023/09/10 00:07:08;;;;;;;12.23;7.70;;;;;;;17.60;100.00;97453.53;5023387;28;20044;-62
2023/09/10 00:09:34;;;;;;;14.52;8.05;;;;;;;17.71;100.00;97456.91;5022672;28;20464;-62
2023/09/10 00:12:01;;;;;;;11.52;8.13;;;;;;;17.83;100.00;97459.22;5022161;28;20440;-63
2023/09/10 00:14:27;;;;;;;10.02;8.05;;;;;;;17.91;100.00;97455.81;5026283;28;20516;-64
2023/09/10 00:16:54;;;;;;;10.32;7.57;;;;;;;17.87;100.00;97457.53;5030554;28;20052;-61
2023/09/10 00:19:21;;;;;;;11.35;7.32;;;;;;;17.70;100.00;97460.78;5020948;28;20045;-61
2023/09/10 00:21:48;;;;;;;11.02;7.68;;;;;;;17.57;100.00;97452.19;5027939;28;20055;-63
2023/09/10 00:24:14;;;;;;;11.13;7.78;;;;;;;17.51;100.00;97456.13;5022812;28;20432;-61
2023/09/10 00:26:41;;;;;;;11.55;8.27;;;;;;;17.43;100.00;97457.59;5023126;28;20049;-61
2023/09/10 00:29:07;;;;;;;9.98;7.70;;;;;;;17.42;100.00;97461.44;5031093;28;20049;-63
2023/09/10 00:31:34;;;;;;;9.30;7.63;;;;;;;17.45;100.00;97465.50;5022924;28;20057;-61
2023/09/10 00:34:02;;;;;;;13.93;7.28;;;;;;;17.55;100.00;97459.91;5019763;28;20051;-62
2023/09/10 00:36:28;;;;;;;9.77;7.40;;;;;;;17.55;100.00;97468.13;5035089;28;20052;-61
2023/09/10 00:38:55;;;;;;;12.63;7.68;;;;;;;17.49;100.00;97459.16;5022591;28;20045;-64
2023/09/10 00:41:21;;;;;;;11.95;7.45;;;;;;;17.42;100.00;97458.69;5019775;28;20130;-63
2023/09/10 00:43:49;;;;;;;14.15;8.40;;;;;;;17.41;100.00;97452.44;5029199;28;20076;-63
2023/09/10 00:46:15;;;;;;;13.73;7.53;;;;;;;17.44;100.00;97448.28;5021457;28;20053;-63
2023/09/10 00:48:42;;;;;;;12.30;8.07;;;;;;;17.46;100.00;97448.78;5026551;28;20045;-63
2023/09/10 00:51:09;;;;;;;12.25;7.95;;;;;;;17.40;100.00;97444.50;5023742;28;20048;-62
2023/09/10 00:53:36;;;;;;;10.98;8.05;;;;;;;17.34;100.00;97449.25;5025429;28;20053;-63
2023/09/10 00:56:03;;;;;;;10.73;7.78;;;;;;;17.34;100.00;97451.16;5033672;28;20037;-62
2023/09/10 00:58:29;;;;;;;11.13;7.60;;;;;;;17.32;100.00;97447.91;5024450;28;20519;-63
2023/09/10 01:00:58;;;;;;;11.95;8.18;;;;;;;17.24;100.00;97444.72;5023084;28;20057;-63
2023/09/10 01:03:26;;;;;;;12.10;7.90;;;;;;;17.24;100.00;97452.09;5022553;28;20471;-63
2023/09/10 01:05:53;;;;;;;13.90;8.45;;;;;;;17.25;100.00;97448.28;5027598;28;20042;-62
2023/09/10 01:08:19;;;;;;;11.43;7.95;;;;;;;17.35;100.00;97442.66;5028949;28;20065;-63
2023/09/10 01:10:58;;;;;;;13.05;8.77;;;;;;;17.40;100.00;97448.03;5026535;28;20049;-62
2023/09/10 01:13:33;;;;;;;13.05;9.18;;;;;;;17.45;100.00;97451.81;5029489;28;20037;-63
2023/09/10 01:16:07;;;;;;;13.48;7.90;;;;;;;17.46;100.00;97446.06;5032616;28;20037;-62
2023/09/10 01:18:44;;;;;;;10.55;7.55;;;;;;;17.47;100.00;97450.41;5028232;28;20546;-63
2023/09/10 01:21:38;;;;;;;9.93;7.30;;;;;;;17.58;100.00;97448.34;5022422;28;20135;-63
2023/09/10 01:24:34;;;;;;;12.40;8.13;;;;;;;17.63;100.00;97442.81;5027485;28;20048;-62
2023/09/10 01:27:01;;;;;;;10.38;7.68;;;;;;;17.67;100.00;97443.84;5025409;28;20269;-64
2023/09/10 01:29:28;;;;;;;13.65;8.45;;;;;;;17.64;100.00;97446.34;5029883;28;20076;-64
2023/09/10 01:32:00;;;;;;;11.57;7.35;;;;;;;17.54;100.00;97448.13;5024983;28;20053;-62
2023/09/10 01:34:34;;;;;;;11.00;7.82;;;;;;;17.42;100.00;97448.56;5023805;28;20041;-65
2023/09/10 01:37:10;;;;;;;12.15;7.93;;;;;;;17.36;100.00;97449.75;5025123;28;20041;-65
2023/09/10 01:39:41;;;;;;;14.45;7.90;;;;;;;17.35;100.00;97452.78;5025947;28;20045;-66
2023/09/10 01:42:08;;;;;;;11.27;7.45;;;;;;;17.49;100.00;97444.66;5029066;28;20048;-63
2023/09/10 01:44:36;;;;;;;10.85;7.25;;;;;;;17.58;100.00;97436.59;5022770;28;20489;-62
2023/09/10 01:47:03;;;;;;;9.43;7.25;;;;;;;17.44;100.00;97442.00;5010586;28;20103;-62
2023/09/10 01:49:31;;;;;;;16.08;7.80;;;;;;;17.47;100.00;97447.69;5023651;28;20044;-62
2023/09/10 01:51:58;;;;;;;11.23;7.32;;;;;;;17.62;100.00;97452.13;5025681;28;20048;-62
2023/09/10 01:54:24;;;;;;;12.60;7.95;;;;;;;17.73;100.00;97452.78;5024664;28;20227;-62
2023/09/10 01:56:51;;;;;;;13.38;8.07;;;;;;;17.66;100.00;97444.13;5031937;28;20048;-61
2023/09/10 01:59:17;;;;;;;10.90;7.40;;;;;;;17.49;100.00;97445.47;5022011;28;20209;-65
2023/09/10 02:01:44;;;;;;;8.73;7.18;;;;;;;17.34;100.00;97441.03;5024582;28;20045;-62
2023/09/10 02:04:11;;;;;;;11.90;7.47;;;;;;;17.36;100.00;97449.75;5025636;28;20041;-61
2023/09/10 02:06:38;;;;;;;13.23;8.40;;;;;;;17.49;100.00;97447.38;5028126;28;20651;-63
2023/09/10 02:09:05;;;;;;;10.95;7.85;;;;;;;17.58;100.00;97442.88;5022013;28;20081;-62
2023/09/10 02:11:31;;;;;;;10.35;7.78;;;;;;;17.59;100.00;97436.31;5011326;28;20057;-62
2023/09/10 02:13:58;;;;;;;9.60;7.70;;;;;;;17.61;100.00;97436.00;5039853;28;20045;-63
2023/09/10 02:16:24;;;;;;;12.32;7.68;;;;;;;17.53;100.00;97429.25;5032130;28;20838;-66
2023/09/10 02:18:51;;;;;;;11.43;7.95;;;;;;;17.44;100.00;97437.34;5025253;28;20416;-62
2023/09/10 02:21:18;;;;;;;13.30;7.90;;;;;;;17.51;100.00;97439.69;5006555;28;20405;-61
2023/09/10 02:23:45;;;;;;;11.38;7.05;;;;;;;17.66;100.00;97438.66;4985586;28;20095;-61
2023/09/10 02:26:12;;;;;;;12.00;7.90;;;;;;;17.66;100.00;97435.94;4989182;28;20069;-62
2023/09/10 02:28:39;;;;;;;15.02;7.93;;;;;;;17.55;100.00;97438.81;4990187;28;20045;-62
2023/09/10 02:31:07;;;;;;;11.60;7.95;;;;;;;17.60;100.00;97440.66;5030531;28;20682;-63
2023/09/10 02:33:34;;;;;;;11.52;7.60;;;;;;;17.67;100.00;97432.06;5024868;28;20673;-62
2023/09/10 02:36:02;;;;;;;12.05;8.02;;;;;;;17.78;100.00;97430.81;5026443;28;20042;-62
2023/09/10 02:38:29;;;;;;;12.63;8.07;;;;;;;17.83;100.00;97438.13;5025493;28;20497;-63
2023/09/10 02:40:56;;;;;;;11.65;7.50;;;;;;;17.80;100.00;97441.47;5032809;28;20049;-62
2023/09/10 02:43:22;;;;;;;10.70;7.55;;;;;;;17.71;100.00;97444.06;5026587;28;20034;-62
2023/09/10 02:45:49;;;;;;;11.10;7.68;;;;;;;17.51;100.00;97437.75;5024120;28;20128;-61
2023/09/10 02:48:16;;;;;;;12.63;8.73;;;;;;;17.31;100.00;97446.28;5023022;28;20136;-63
2023/09/10 02:50:42;;;;;;;11.57;8.32;;;;;;;17.07;100.00;97438.91;5027430;28;20120;-63
2023/09/10 02:53:09;;;;;;;11.60;8.40;;;;;;;16.90;100.00;97437.44;5025925;28;20367;-63
2023/09/10 02:55:36;;;;;;;10.98;8.10;;;;;;;16.84;100.00;97433.16;5027363;28;20049;-63
2023/09/10 02:58:03;;;;;;;11.93;8.45;;;;;;;16.77;100.00;97439.78;5028670;28;20049;-62
2023/09/10 03:00:30;;;;;;;13.00;9.15;;;;;;;16.74;100.00;97442.28;5027821;28;20057;-61
2023/09/10 03:02:57;;;;;;;15.23;8.90;;;;;;;16.76;100.00;97438.16;5023607;28;20071;-63
2023/09/10 03:05:24;;;;;;;11.45;8.02;;;;;;;16.74;100.00;97440.34;5024729;28;20507;-63
2023/09/10 03:07:52;;;;;;;10.82;8.40;;;;;;;16.80;100.00;97443.03;5024003;28;20046;-62
2023/09/10 03:10:19;;;;;;;13.27;8.23;;;;;;;16.89;100.00;97446.75;4996698;28;20128;-62
2023/09/10 03:12:46;;;;;;;11.80;7.97;;;;;;;16.77;100.00;97441.72;5025657;28;20067;-62
2023/09/10 03:15:16;;;;;;;11.20;8.48;;;;;;;16.75;100.00;97439.25;5024861;28;20106;-64
2023/09/10 03:17:42;;;;;;;11.63;8.50;;;;;;;16.88;100.00;97439.66;5022853;28;20034;-63
2023/09/10 03:20:09;;;;;;;13.10;9.02;;;;;;;16.74;100.00;97445.81;5026650;28;20142;-63
2023/09/10 03:22:37;;;;;;;11.60;8.20;;;;;;;16.62;100.00;97448.16;5023938;28;20455;-66
2023/09/10 03:25:04;;;;;;;10.38;8.05;;;;;;;16.57;100.00;97446.28;5028960;28;20049;-65
2023/09/10 03:27:30;;;;;;;11.13;8.13;;;;;;;16.70;100.00;97444.75;5021609;28;20037;-62
2023/09/10 03:29:57;;;;;;;11.30;8.52;;;;;;;16.63;100.00;97447.06;5025726;28;20073;-64
2023/09/10 03:32:24;;;;;;;10.60;7.75;;;;;;;16.75;100.00;97447.47;5019585;28;20041;-64
2023/09/10 03:34:50;;;;;;;15.55;8.23;;;;;;;16.79;100.00;97450.41;5028745;28;20184;-63
2023/09/10 03:37:17;;;;;;;14.60;8.82;;;;;;;16.72;100.00;97445.31;5022504;28;20083;-63
2023/09/10 03:39:44;;;;;;;11.93;8.40;;;;;;;16.63;100.00;97441.59;5025137;28;20407;-61
2023/09/10 03:42:10;;;;;;;11.65;8.13;;;;;;;16.57;100.00;97440.00;5020898;28;20080;-62
2023/09/10 03:44:37;;;;;;;10.75;8.25;;;;;;;16.37;100.00;97442.66;5022219;28;20132;-62
2023/09/10 03:47:04;;;;;;;11.45;8.35;;;;;;;16.28;100.00;97441.66;5021861;28;20084;-62
2023/09/10 03:49:33;;;;;;;12.88;8.38;;;;;;;16.28;100.00;97449.06;5021721;28;20080;-63
2023/09/10 03:52:00;;;;;;;10.55;7.90;;;;;;;16.31;100.00;97440.25;5018589;28;20045;-62
2023/09/10 03:54:26;;;;;;;11.82;8.25;;;;;;;16.33;100.00;97438.06;5019983;28;20052;-63
2023/09/10 03:56:53;;;;;;;10.90;8.02;;;;;;;16.25;100.00;97447.69;5004170;28;20073;-62
2023/09/10 03:59:19;;;;;;;10.20;7.82;;;;;;;16.36;100.00;97441.03;5006169;28;20050;-63
2023/09/10 04:01:47;;;;;;;10.85;8.63;;;;;;;16.29;100.00;97442.47;5012599;28;22362;-62
2023/09/10 04:04:14;;;;;;;12.00;8.15;;;;;;;16.25;100.00;97442.22;5024944;28;20598;-62
2023/09/10 04:06:41;;;;;;;12.55;8.52;;;;;;;16.19;100.00;97436.00;5029142;28;20044;-63
2023/09/10 04:09:08;;;;;;;14.50;8.85;;;;;;;16.10;100.00;97445.91;5020418;28;20086;-62
2023/09/10 04:11:35;;;;;;;10.63;8.73;;;;;;;15.96;100.00;97451.22;5020402;28;20056;-60
2023/09/10 04:14:01;;;;;;;11.73;8.45;;;;;;;15.91;100.00;97449.31;5024300;28;20067;-62
2023/09/10 04:16:29;;;;;;;12.85;9.15;;;;;;;15.92;100.00;97455.59;5021805;28;20889;-62
2023/09/10 04:18:55;;;;;;;13.05;8.93;;;;;;;15.92;100.00;97453.66;5026685;28;20123;-62
2023/09/10 04:21:22;;;;;;;10.45;8.43;;;;;;;15.88;100.00;97454.53;5031488;28;20061;-62
2023/09/10 04:23:48;;;;;;;13.00;8.65;;;;;;;15.92;100.00;97455.59;5028537;28;20075;-63
2023/09/10 04:26:15;;;;;;;12.02;8.88;;;;;;;15.89;100.00;97458.88;5024160;28;20049;-61
2023/09/10 04:28:42;;;;;;;13.45;8.20;;;;;;;15.95;100.00;97457.75;5024050;28;20042;-62
2023/09/10 04:31:13;;;;;;;12.63;8.23;;;;;;;16.03;100.00;97453.63;5020701;28;20052;-63
2023/09/10 04:33:40;;;;;;;10.10;7.80;;;;;;;15.93;100.00;97460.78;5025017;28;20072;-63
2023/09/10 04:36:07;;;;;;;11.07;9.27;;;;;;;15.88;100.00;97457.25;5028489;28;20715;-63
2023/09/10 04:38:33;;;;;;;10.40;8.10;;;;;;;15.79;100.00;97465.22;5033747;28;20423;-62
2023/09/10 04:41:00;;;;;;;11.80;9.20;;;;;;;15.82;100.00;97462.75;5028463;28;20681;-63
2023/09/10 04:43:27;;;;;;;14.15;9.52;;;;;;;15.78;100.00;97469.06;5029262;28;20038;-62
2023/09/10 04:45:53;;;;;;;12.10;8.82;;;;;;;15.81;100.00;97472.03;5025516;28;20509;-62
2023/09/10 04:48:20;;;;;;;12.15;8.32;;;;;;;15.85;100.00;97466.84;5027763;28;20135;-63
2023/09/10 04:50:47;;;;;;;12.65;8.30;;;;;;;15.86;100.00;97474.72;5034155;28;20051;-61
2023/09/10 04:53:14;;;;;;;12.07;8.90;;;;;;;15.74;100.00;97471.56;5026632;28;20053;-61
2023/09/10 04:55:41;;;;;;;11.75;7.97;;;;;;;15.66;100.00;97483.88;5028280;28;20045;-61
2023/09/10 04:58:11;;;;;;;14.27;8.10;;;;;;;15.62;100.00;97488.25;5025076;28;20467;-63
2023/09/10 05:00:41;;;;;;;14.88;9.05;;;;;;;15.63;100.00;97476.28;5033809;28;20048;-64
2023/09/10 05:03:07;;;;;;;13.65;9.45;;;;;;;15.58;100.00;97484.47;5023050;28;20067;-62
2023/09/10 05:05:34;;;;;;;14.88;8.90;;;;;;;15.61;100.00;97486.63;5025131;28;20041;-62
2023/09/10 05:08:01;;;;;;;12.00;9.05;;;;;;;15.69;100.00;97487.94;5029318;28;20571;-62
2023/09/10 05:10:29;;;;;;;13.00;9.00;;;;;;;15.67;100.00;97484.69;5023980;28;20095;-62
2023/09/10 05:12:56;;;;;;;12.32;8.52;;;;;;;15.86;100.00;97484.84;5032241;28;20072;-62
2023/09/10 05:15:22;;;;;;;11.40;8.20;;;;;;;15.84;100.00;97489.75;5036067;28;20515;-63
2023/09/10 05:17:49;;;;;;;15.98;8.45;;;;;;;15.97;100.00;97491.06;5036487;28;20033;-62
2023/09/10 05:20:16;;;;;;;12.68;8.75;;;;;;;15.89;100.00;97487.03;5032951;28;20034;-62
2023/09/10 05:22:43;;;;;;;12.65;8.65;;;;;;;15.95;100.00;97488.63;5030973;28;20045;-61
2023/09/10 05:25:10;;;;;;;12.40;8.20;;;;;;;16.02;100.00;97492.94;5032606;28;20328;-62
2023/09/10 05:27:37;;;;;;;13.65;8.80;;;;;;;16.13;100.00;97486.31;5029700;28;20049;-62
2023/09/10 05:30:06;;;;;;;11.57;8.10;;;;;;;16.20;100.00;97492.25;5062660;28;20069;-62
2023/09/10 05:32:33;;;;;;;11.57;8.50;;;;;;;16.24;100.00;97493.31;5035175;28;20613;-63
2023/09/10 05:35:00;;;;;;;11.73;8.00;;;;;;;16.41;100.00;97488.53;5032843;28;20318;-62
2023/09/10 05:37:26;;;;;;;11.30;8.05;;;;;;;16.35;100.00;97483.13;5032469;28;20038;-62
2023/09/10 05:39:53;;;;;;;11.90;8.00;;;;;;;16.38;100.00;97485.28;5032266;28;20126;-62
2023/09/10 05:42:20;;;;;;;11.35;8.40;;;;;;;16.45;100.00;97484.13;5029315;28;20069;-61
2023/09/10 05:44:51;;;;;;;12.02;8.38;;;;;;;16.50;100.00;97482.16;5034881;28;20056;-61
2023/09/10 05:47:20;;;;;;;;;;;;;;;16.49;100.00;97486.00;5034134;28;20033;-62
2023/09/10 05:49:47;;;;;;;10.55;7.85;;;;;;;16.59;100.00;97478.81;5029453;28;19971;-62
2023/09/10 05:52:14;;;;;;;11.45;7.57;;;;;;;16.66;100.00;97486.66;5032325;28;20722;-61
2023/09/10 05:54:41;;;;;;;10.90;8.77;;;;;;;16.73;100.00;97487.94;5032130;28;20128;-61
2023/09/10 05:57:07;;;;;;;12.27;8.18;;;;;;;16.66;100.00;97484.72;5029397;28;20124;-62
2023/09/10 05:59:34;;;;;;;12.95;8.00;;;;;;;16.69;100.00;97491.56;5024944;28;20083;-63
2023/09/10 06:02:01;;;;;;;11.20;8.25;;;;;;;16.72;100.00;97491.78;5031401;28;20037;-63
2023/09/10 06:04:28;;;;;;;13.75;8.80;;;;;;;16.83;100.00;97497.97;5021341;28;20049;-63
2023/09/10 06:06:55;;;;;;;11.25;8.65;;;;;;;16.93;100.00;97499.78;5025982;28;20423;-62
2023/09/10 06:09:22;;;;;;;12.93;8.70;;;;;;;16.97;100.00;97487.16;5022970;28;20164;-62
2023/09/10 06:11:49;;;;;;;11.32;8.07;;;;;;;17.06;100.00;97492.81;5024923;28;20049;-62
2023/09/10 06:14:15;;;;;;;12.02;8.88;;;;;;;17.11;100.00;97497.41;5030347;28;20057;-63
2023/09/10 06:16:43;;;;;;;17.50;8.88;;;;;;;17.25;100.00;97497.53;5022543;28;20030;-61
2023/09/10 06:19:09;;;;;;;11.55;8.25;;;;;;;17.34;100.00;97492.19;5034331;28;20061;-63
2023/09/10 06:21:36;;;;;;;18.05;9.45;;;;;;;17.45;100.00;97490.13;5031554;28;20069;-63
2023/09/10 06:24:03;;;;;;;13.07;9.43;;;;;;;17.55;100.00;97490.03;5024171;28;20052;-62
2023/09/10 06:26:30;;;;;;;11.35;8.43;;;;;;;17.62;100.00;97493.19;5025172;28;20550;-61
2023/09/10 06:28:57;;;;;;;11.00;8.05;;;;;;;17.70;100.00;97488.97;5023356;28;20647;-63
2023/09/10 06:31:24;;;;;;;12.27;8.18;;;;;;;17.75;100.00;97497.13;5027670;28;20049;-62
2023/09/10 06:33:50;;;;;;;10.70;8.23;;;;;;;17.79;100.00;97500.06;5023335;28;20118;-62
2023/09/10 06:36:17;;;;;;;11.35;8.52;;;;;;;17.92;100.00;97496.59;5024618;28;20049;-62
2023/09/10 06:38:47;;;;;;;10.23;7.80;;;;;;;18.03;100.00;97499.19;5023108;28;20048;-62
2023/09/10 06:41:15;;;;;;;10.48;7.78;;;;;;;18.14;100.00;97503.41;5022230;28;20048;-63
2023/09/10 06:43:43;;;;;;;11.00;7.68;;;;;;;18.26;100.00;97496.66;5028129;28;20069;-62
2023/09/10 06:46:14;;;;;;;11.80;7.20;;;;;;;18.39;100.00;97506.84;5033941;28;20078;-62
2023/09/10 06:48:41;;;;;;;13.13;8.30;;;;;;;18.50;100.00;97504.72;5038095;28;20076;-63
2023/09/10 06:51:08;;;;;;;11.02;7.47;;;;;;;18.64;100.00;97507.50;5031124;28;20045;-62
2023/09/10 06:53:34;;;;;;;10.30;7.57;;;;;;;18.75;100.00;97510.88;5029729;28;20040;-60
2023/09/10 06:56:01;;;;;;;10.75;7.68;;;;;;;18.89;100.00;97515.56;5024046;28;20080;-61
2023/09/10 06:58:27;;;;;;;11.25;6.85;;;;;;;19.03;100.00;97515.56;5030350;28;20112;-62
2023/09/10 07:00:54;;;;;;;8.68;7.00;;;;;;;19.15;100.00;97515.09;5037737;28;20045;-62
2023/09/10 07:03:20;;;;;;;9.73;6.82;;;;;;;19.29;100.00;97515.94;5029531;28;21587;-62
2023/09/10 07:05:47;;;;;;;11.68;6.95;;;;;;;19.44;100.00;97522.19;5025757;28;20132;-61
2023/09/10 07:08:14;;;;;;;11.98;7.07;;;;;;;19.58;100.00;97519.44;5027219;28;20412;-63
2023/09/10 07:10:40;;;;;;;9.95;7.40;;;;;;;19.74;100.00;97528.97;5028336;28;20045;-62
2023/09/10 07:13:07;;;;;;;9.77;7.43;;;;;;;19.83;99.80;97517.25;5036568;28;20060;-62
2023/09/10 07:15:35;;;;;;;9.90;6.25;;;;;;;19.90;99.82;97525.88;5028434;28;20036;-63
2023/09/10 07:18:03;;;;;;;10.27;7.07;;;;;;;19.98;99.14;97521.59;5026138;28;20378;-63
2023/09/10 07:20:30;;;;;;;9.75;7.13;;;;;;;20.04;99.32;97525.88;5025732;28;20099;-63
2023/09/10 07:22:57;;;;;;;9.38;6.30;;;;;;;20.14;98.27;97522.88;5028060;28;20041;-66
2023/09/10 07:25:24;;;;;;;10.90;6.40;;;;;;;20.21;97.34;97519.69;5023128;28;20041;-65
2023/09/10 07:27:53;;;;;;;9.90;6.82;;;;;;;20.27;96.60;97521.19;5023014;28;20049;-62
2023/09/10 07:30:20;;;;;;;8.95;6.35;;;;;;;20.40;93.05;97519.50;5021723;28;20041;-61
2023/09/10 07:32:46;;;;;;;12.45;6.00;;;;;;;20.46;92.23;97522.94;5024184;28;20079;-63
2023/09/10 07:35:16;;;;;;;10.48;5.28;;;;;;;20.56;91.65;97526.56;5023397;28;20544;-61
2023/09/10 07:37:43;;;;;;;10.45;6.38;;;;;;;20.65;91.12;97525.47;5025212;28;20412;-61
2023/09/10 07:40:09;;;;;;;8.60;5.70;;;;;;;20.72;90.74;97529.72;5027432;28;20037;-63
2023/09/10 07:42:36;;;;;;;6.03;4.75;;;;;;;20.77;90.45;97526.84;5026093;28;20091;-62
2023/09/10 07:45:03;;;;;;;7.45;5.30;;;;;;;20.87;89.70;97532.13;5022749;28;20063;-62
2023/09/10 07:47:29;;;;;;;6.15;5.05;;;;;;;20.99;88.79;97533.44;5023973;28;20048;-62
2023/09/10 07:49:56;;;;;;;6.97;5.45;;;;;;;21.08;87.79;97533.50;5022876;28;20067;-62
2023/09/10 07:52:23;;;;;;;7.30;4.93;;;;;;;21.15;87.30;97528.31;5021268;28;20096;-63
2023/09/10 07:54:49;;;;;;;10.05;6.10;;;;;;;21.28;82.92;97532.94;5026934;28;20056;-61
2023/09/10 07:57:16;;;;;;;7.10;4.75;;;;;;;21.37;83.71;97535.69;5020797;28;20046;-60
2023/09/10 07:59:43;;;;;;;5.78;4.55;;;;;;;21.47;84.03;97536.53;5020100;28;20041;-61
2023/09/10 08:02:09;;;;;;;6.80;5.03;;;;;;;21.54;83.88;97540.44;5020230;28;20049;-60
2023/09/10 08:04:36;;;;;;;8.10;5.70;;;;;;;21.80;80.24;97533.38;5020936;28;20052;-62
2023/09/10 08:07:04;;;;;;;6.75;5.18;;;;;;;21.88;81.18;97532.59;5020416;28;20567;-63
2023/09/10 08:09:31;;;;;;;8.05;4.78;;;;;;;22.02;80.58;97535.19;5021200;28;20041;-61
2023/09/10 08:11:58;;;;;;;7.03;5.05;;;;;;;22.09;80.72;97535.53;5018905;28;20808;-62
2023/09/10 08:14:25;;;;;;;7.13;5.25;;;;;;;22.18;79.89;97538.25;5021095;28;20070;-63
2023/09/10 08:16:51;;;;;;;8.18;5.60;;;;;;;22.34;79.57;97533.06;5024668;28;20045;-61
2023/09/10 08:19:18;;;;;;;19.00;6.10;;;;;;;22.48;78.04;97540.34;5024033;28;20500;-63
2023/09/10 08:21:45;;;;;;;8.20;4.82;;;;;;;22.63;77.86;97541.00;5027223;28;20491;-61
2023/09/10 08:24:12;;;;;;;8.95;5.20;;;;;;;22.73;75.98;97535.13;5005310;28;20049;-62
2023/09/10 08:26:38;;;;;;;9.07;5.78;;;;;;;22.80;75.12;97537.38;5024507;28;20038;-62
2023/09/10 08:29:05;;;;;;;7.88;4.85;;;;;;;22.87;75.37;97540.47;5023367;28;20707;-62
2023/09/10 08:31:32;;;;;;;5.57;4.30;;;;;;;22.91;75.82;97541.41;5022435;28;20041;-61
2023/09/10 08:33:58;;;;;;;7.53;5.15;;;;;;;22.98;75.28;97547.25;5024265;28;20053;-61
2023/09/10 08:36:25;;;;;;;8.10;5.00;;;;;;;23.08;73.77;97545.25;5024913;28;20091;-61
2023/09/10 08:38:53;;;;;;;7.80;5.25;;;;;;;23.16;72.56;97552.72;5023209;28;20044;-63
2023/09/10 08:41:28;;;;;;;6.70;4.93;;;;;;;23.20;73.96;97548.13;5023184;28;20056;-61
2023/09/10 08:43:57;;;;;;;8.75;5.32;;;;;;;23.32;73.03;97541.09;5023448;28;20045;-61
2023/09/10 08:46:30;;;;;;;8.63;4.40;;;;;;;23.35;72.72;97545.97;5023900;28;20179;-62
2023/09/10 08:48:58;;;;;;;7.70;4.70;;;;;;;23.41;73.58;97552.13;5023731;28;20041;-62
2023/09/10 08:51:26;;;;;;;6.03;5.00;;;;;;;23.42;74.05;97557.34;5023376;28;20111;-61
2023/09/10 08:53:56;;;;;;;7.13;5.40;;;;;;;23.41;70.77;97549.38;5023970;28;20107;-61
2023/09/10 08:56:23;;;;;;;7.15;5.25;;;;;;;23.41;68.00;97547.44;5021964;28;20141;-61
2023/09/10 08:58:51;;;;;;;6.43;5.00;;;;;;;23.55;70.31;97549.13;5024981;28;20586;-61
2023/09/10 09:01:19;;;;;;;8.40;5.85;;;;;;;23.70;69.43;97547.75;5022466;28;20056;-63
2023/09/10 09:03:47;;;;;;;8.55;5.90;;;;;;;23.94;72.28;97547.09;5024513;28;20049;-62
2023/09/10 09:06:15;;;;;;;10.82;6.13;;;;;;;24.08;72.09;97546.84;5024268;28;20041;-63
2023/09/10 09:08:48;;;;;;;7.60;5.70;;;;;;;24.12;71.25;97547.81;5028258;28;20056;-62
2023/09/10 09:11:15;;;;;;;9.77;6.30;;;;;;;24.19;72.02;97544.50;5021685;28;20571;-62
2023/09/10 09:13:45;;;;;;;10.75;5.70;;;;;;;24.29;71.27;97546.84;5024352;28;20114;-63
2023/09/10 09:16:12;;;;;;;11.90;6.55;;;;;;;24.34;70.77;97548.59;5021875;28;20045;-61
2023/09/10 09:18:40;;;;;;;9.57;5.65;;;;;;;24.35;70.10;97547.44;5024160;28;20048;-62
2023/09/10 09:21:21;;;;;;;8.30;5.35;;;;;;;24.48;70.63;97551.09;5020752;28;20053;-61
2023/09/10 09:24:00;;;;;;;6.75;5.63;;;;;;;24.54;69.91;97543.34;5020143;28;20133;-60
2023/09/10 09:26:30;;;;;;;10.32;5.72;;;;;;;24.57;69.19;97547.44;5022160;28;20054;-61
2023/09/10 09:28:57;;;;;;;6.88;5.53;;;;;;;24.52;68.42;97553.97;5022857;28;20044;-61
2023/09/10 09:31:24;;;;;;;10.27;5.60;;;;;;;24.55;68.79;97550.53;5022949;28;20079;-60
2023/09/10 09:33:52;;;;;;;9.98;6.15;;;;;;;24.60;67.74;97543.97;5026136;28;20126;-62
2023/09/10 09:36:24;;;;;;;8.23;5.07;;;;;;;24.66;66.97;97540.63;5023900;28;20045;-61
2023/09/10 09:38:50;;;;;;;6.55;5.13;;;;;;;24.80;66.19;97531.19;5022983;28;20048;-62
2023/09/10 09:41:17;;;;;;;8.48;5.20;;;;;;;24.84;65.63;97531.34;5022742;28;20038;-61
2023/09/10 09:43:44;;;;;;;7.50;5.03;;;;;;;24.85;65.22;97530.22;5026988;28;20052;-61
2023/09/10 09:46:11;;;;;;;8.38;5.10;;;;;;;24.91;63.77;97532.41;5021455;28;20049;-62
2023/09/10 09:48:39;;;;;;;8.27;5.32;;;;;;;24.91;63.21;97524.09;5023868;28;20053;-61
2023/09/10 09:51:06;;;;;;;9.65;5.68;;;;;;;24.92;62.98;97534.03;5022286;28;20049;-61
2023/09/10 09:53:33;;;;;;;6.53;4.88;;;;;;;24.92;62.96;97525.72;5023128;28;20041;-61
2023/09/10 09:56:05;;;;;;;9.48;5.75;;;;;;;25.01;61.75;97517.31;5024188;28;20053;-60
2023/09/10 09:58:33;;;;;;;11.18;5.07;;;;;;;25.12;62.04;97523.22;5021274;28;20042;-61
2023/09/10 10:01:00;;;;;;;6.70;5.00;;;;;;;25.16;61.89;97520.56;5022029;28;20049;-62
2023/09/10 10:03:29;;;;;;;6.05;4.75;;;;;;;25.11;61.22;97518.00;5022669;28;20049;-62
2023/09/10 10:05:56;;;;;;;7.43;5.10;;;;;;;25.10;60.52;97516.41;5022619;28;20050;-61
2023/09/10 10:08:27;;;;;;;11.25;5.43;;;;;;;25.06;60.36;97513.53;5024507;28;20025;-62
2023/09/10 10:10:53;;;;;;;7.13;5.70;;;;;;;25.08;61.72;97513.97;5016777;28;20407;-61
2023/09/10 10:13:23;;;;;;;8.77;5.55;;;;;;;25.10;61.56;97516.41;5021087;28;20496;-60
2023/09/10 10:15:51;;;;;;;11.85;5.32;;;;;;;25.16;61.89;97515.81;5027778;28;20335;-62
2023/09/10 10:18:21;;;;;;;8.65;5.78;;;;;;;25.25;61.74;97512.13;5021069;28;20049;-62
2023/09/10 10:20:49;;;;;;;7.82;5.47;;;;;;;25.24;61.84;97507.75;5022386;28;20045;-60
2023/09/10 10:23:18;;;;;;;6.90;5.18;;;;;;;25.23;61.45;97508.88;5019188;28;20055;-62
2023/09/10 10:26:06;;;;;;;7.70;5.70;;;;;;;25.33;60.87;97505.69;5022178;28;20044;-61
2023/09/10 10:28:35;;;;;;;7.13;5.43;;;;;;;25.41;61.21;97499.22;5022608;28;20103;-65
2023/09/10 10:31:12;;;;;;;7.28;5.22;;;;;;;25.49;59.69;97503.00;5021601;28;20107;-63
2023/09/10 10:33:48;;;;;;;8.40;5.07;;;;;;;25.53;60.24;97501.16;5023663;28;20038;-65
2023/09/10 10:36:26;;;;;;;8.63;5.30;;;;;;;25.59;59.05;97501.75;5021690;28;20045;-62
2023/09/10 10:38:54;;;;;;;8.27;5.50;;;;;;;25.65;58.77;97499.56;5021112;28;20563;-61
2023/09/10 10:41:24;;;;;;;7.35;5.18;;;;;;;25.73;58.59;97492.25;5022058;28;20049;-63
2023/09/10 10:43:55;;;;;;;;;;;;;;;25.76;56.47;97497.91;5024774;28;20049;-63
2023/09/10 10:46:25;;;;;;;8.60;5.10;;;;;;;25.74;56.33;97491.91;5020975;28;20307;-64
2023/09/10 10:48:52;;;;;;;8.68;5.45;;;;;;;25.75;57.01;97493.50;5023613;28;20125;-64
2023/09/10 10:51:19;;;;;;;8.80;5.15;;;;;;;25.79;56.49;97490.88;5021715;28;20824;-63
2023/09/10 10:53:48;;;;;;;7.25;5.13;;;;;;;25.84;55.61;97493.38;5021863;28;20045;-62
2023/09/10 10:56:17;;;;;;;7.35;5.40;;;;;;;25.90;54.28;97489.19;5020290;28;20107;-62
2023/09/10 10:58:44;;;;;;;7.85;5.05;;;;;;;25.96;54.18;97482.25;5019438;28;20048;-64
2023/09/10 11:01:14;;;;;;;8.82;5.68;;;;;;;25.98;55.82;97490.22;5020767;28;20049;-65
2023/09/10 11:03:43;;;;;;;8.90;5.75;;;;;;;25.82;55.22;97479.88;5021695;28;20744;-64
2023/09/10 11:06:09;;;;;;;8.80;5.22;;;;;;;25.86;56.05;97479.19;5020911;28;20077;-65
2023/09/10 11:08:37;;;;;;;8.95;5.22;;;;;;;25.92;54.16;97480.53;5022702;28;20052;-61
2023/09/10 11:11:09;;;;;;;9.60;5.28;;;;;;;26.22;53.42;97483.78;5018745;28;20084;-60
2023/09/10 11:14:00;;;;;;;6.80;4.30;;;;;;;26.29;52.11;97491.53;5022777;28;20184;-61
2023/09/10 11:16:31;;;;;;;8.77;5.40;;;;;;;26.28;53.79;97481.59;5021580;28;20087;-62
2023/09/10 11:18:58;;;;;;;7.97;4.70;;;;;;;26.32;54.37;97478.91;5021395;28;20130;-65
2023/09/10 11:21:56;;;;;;;8.35;5.85;;;;;;;26.36;53.33;97477.81;5020885;28;20056;-60
2023/09/10 11:24:24;;;;;;;7.47;4.93;;;;;;;26.32;54.73;97470.59;5000622;28;20045;-62
2023/09/10 11:27:23;;;;;;;9.15;5.32;;;;;;;26.45;54.20;97472.13;5007088;28;20049;-62
2023/09/10 11:30:11;;;;;;;8.63;5.18;;;;;;;26.64;53.93;97467.06;5017870;28;20069;-62